sensor_id;sensor_type;location;lat;lon;timestamp;pressure;altitude;pressure_sealevel;temperature;humidity
61318;BME280;47201;40.428;-8.436;2023-05-11T00:00:09;101094.53;;;11.89;100.00
61318;BME280;47201;40.428;-8.436;2023-05-11T00:02:11;101090.16;;;11.86;100.00
61318;BME280;47201;40.428;-8.436;2023-05-11T00:04:15;101088.41;;;11.85;100.00
61318;BME280;47201;40.428;-8.436;2023-05-11T00:06:15;101098.91;;;11.85;100.00
61318;BME280;47201;40.428;-8.436;2023-05-11T00:08:16;101099.75;;;11.84;100.00
61318;BME280;47201;40.428;-8.436;2023-05-11T00:10:16;101105.91;;;11.83;100.00
61318;BME280;47201;40.428;-8.436;2023-05-11T00:12:17;101098.91;;;11.81;100.00
61318;BME280;47201;40.428;-8.436;2023-05-11T00:14:17;101096.31;;;11.82;100.00
61318;BME280;47201;40.428;-8.436;2023-05-11T00:16:18;101098.91;;;11.82;100.00
61318;BME280;47201;40.428;-8.436;2023-05-11T00:18:18;101092.78;;;11.80;100.00
61318;BME280;47201;40.428;-8.436;2023-05-11T00:20:19;101096.28;;;11.73;100.00
61318;BME280;47201;40.428;-8.436;2023-05-11T00:22:21;101093.66;;;11.64;100.00
61318;BME280;47201;40.428;-8.436;2023-05-11T00:24:21;101098.91;;;11.57;100.00
61318;BME280;47201;40.428;-8.436;2023-05-11T00:26:22;101102.41;;;11.53;100.00
61318;BME280;47201;40.428;-8.436;2023-05-11T00:28:22;101111.97;;;11.54;100.00
61318;BME280;47201;40.428;-8.436;2023-05-11T00:30:23;101104.13;;;11.53;100.00
61318;BME280;47201;40.428;-8.436;2023-05-11T00:32:24;101111.13;;;11.52;100.00
61318;BME280;47201;40.428;-8.436;2023-05-11T00:34:24;101106.75;;;11.48;100.00
61318;BME280;47201;40.428;-8.436;2023-05-11T00:36:27;101110.22;;;11.41;100.00
61318;BME280;47201;40.428;-8.436;2023-05-11T00:38:27;101101.47;;;11.33;100.00
61318;BME280;47201;40.428;-8.436;2023-05-11T00:40:30;101098.88;;;11.33;100.00
61318;BME280;47201;40.428;-8.436;2023-05-11T00:42:30;101102.38;;;11.29;100.00
61318;BME280;47201;40.428;-8.436;2023-05-11T00:44:31;101104.13;;;11.28;100.00
61318;BME280;47201;40.428;-8.436;2023-05-11T00:46:32;101101.50;;;11.31;100.00
61318;BME280;47201;40.428;-8.436;2023-05-11T00:48:32;101104.13;;;11.39;100.00
61318;BME280;47201;40.428;-8.436;2023-05-11T00:50:33;101106.78;;;11.50;100.00
61318;BME280;47201;40.428;-8.436;2023-05-11T00:52:35;101102.38;;;11.56;100.00
61318;BME280;47201;40.428;-8.436;2023-05-11T00:54:35;101100.66;;;11.60;100.00
61318;BME280;47201;40.428;-8.436;2023-05-11T00:56:36;101099.78;;;11.59;100.00
61318;BME280;47201;40.428;-8.436;2023-05-11T00:58:36;101103.25;;;11.49;100.00
61318;BME280;47201;40.428;-8.436;2023-05-11T01:00:37;101105.00;;;11.47;100.00
61318;BME280;47201;40.428;-8.436;2023-05-11T01:02:38;101100.63;;;11.34;100.00
61318;BME280;47201;40.428;-8.436;2023-05-11T01:04:38;101102.34;;;11.18;100.00
61318;BME280;47201;40.428;-8.436;2023-05-11T01:09:02;101101.47;;;11.16;100.00
61318;BME280;47201;40.428;-8.436;2023-05-11T01:15:24;101091.00;;;11.22;100.00
61318;BME280;47201;40.428;-8.436;2023-05-11T01:17:35;101088.41;;;11.26;100.00
61318;BME280;47201;40.428;-8.436;2023-05-11T01:19:56;101088.41;;;11.26;100.00
61318;BME280;47201;40.428;-8.436;2023-05-11T01:21:58;101086.66;;;11.29;100.00
61318;BME280;47201;40.428;-8.436;2023-05-11T01:31:25;101077.91;;;11.26;100.00
61318;BME280;47201;40.428;-8.436;2023-05-11T01:33:21;101083.19;;;11.30;100.00
61318;BME280;47201;40.428;-8.436;2023-05-11T01:35:24;101078.81;;;11.29;100.00
61318;BME280;47201;40.428;-8.436;2023-05-11T01:37:25;101075.31;;;11.20;100.00
61318;BME280;47201;40.428;-8.436;2023-05-11T01:39:31;101071.81;;;11.09;100.00
61318;BME280;47201;40.428;-8.436;2023-05-11T01:41:34;101073.53;;;11.01;100.00
61318;BME280;47201;40.428;-8.436;2023-05-11T01:43:36;101067.38;;;10.95;100.00
61318;BME280;47201;40.428;-8.436;2023-05-11T01:45:40;101066.53;;;10.97;100.00
61318;BME280;47201;40.428;-8.436;2023-05-11T01:47:42;101071.78;;;10.98;100.00
61318;BME280;47201;40.428;-8.436;2023-05-11T01:49:44;101070.03;;;11.00;100.00
61318;BME280;47201;40.428;-8.436;2023-05-11T01:51:46;101064.78;;;11.00;100.00
61318;BME280;47201;40.428;-8.436;2023-05-11T01:53:50;101063.06;;;11.02;100.00
61318;BME280;47201;40.428;-8.436;2023-05-11T01:55:52;101065.69;;;11.07;100.00
61318;BME280;47201;40.428;-8.436;2023-05-11T01:57:54;101063.94;;;11.06;100.00
61318;BME280;47201;40.428;-8.436;2023-05-11T01:59:55;101066.53;;;11.03;100.00
61318;BME280;47201;40.428;-8.436;2023-05-11T02:01:55;101063.06;;;11.02;100.00
61318;BME280;47201;40.428;-8.436;2023-05-11T02:03:57;101061.31;;;11.01;100.00
61318;BME280;47201;40.428;-8.436;2023-05-11T02:06:00;101063.94;;;11.00;100.00
61318;BME280;47201;40.428;-8.436;2023-05-11T02:08:03;101064.78;;;10.99;100.00
61318;BME280;47201;40.428;-8.436;2023-05-11T02:10:04;101057.81;;;10.90;100.00
61318;BME280;47201;40.428;-8.436;2023-05-11T02:12:06;101053.41;;;10.81;100.00
61318;BME280;47201;40.428;-8.436;2023-05-11T02:14:10;101048.16;;;10.75;100.00
61318;BME280;47201;40.428;-8.436;2023-05-11T02:16:11;101056.84;;;10.69;100.00
61318;BME280;47201;40.428;-8.436;2023-05-11T02:18:14;101054.25;;;10.71;100.00
61318;BME280;47201;40.428;-8.436;2023-05-11T02:20:15;101055.13;;;10.71;100.00
61318;BME280;47201;40.428;-8.436;2023-05-11T02:22:16;101049.00;;;10.66;100.00
61318;BME280;47201;40.428;-8.436;2023-05-11T02:24:18;101051.63;;;10.65;100.00
61318;BME280;47201;40.428;-8.436;2023-05-11T02:26:20;101051.56;;;10.58;100.00
61318;BME280;47201;40.428;-8.436;2023-05-11T02:28:21;101045.47;;;10.53;100.00
61318;BME280;47201;40.428;-8.436;2023-05-11T02:30:21;101049.81;;;10.48;100.00
61318;BME280;47201;40.428;-8.436;2023-05-11T02:32:23;101044.56;;;10.46;100.00
61318;BME280;47201;40.428;-8.436;2023-05-11T02:34:28;101057.63;;;10.45;100.00
61318;BME280;47201;40.428;-8.436;2023-05-11T02:36:29;101055.00;;;10.46;100.00
61318;BME280;47201;40.428;-8.436;2023-05-11T02:38:32;101045.44;;;10.47;100.00
61318;BME280;47201;40.428;-8.436;2023-05-11T02:40:38;101057.63;;;10.46;100.00
61318;BME280;47201;40.428;-8.436;2023-05-11T02:42:40;101046.31;;;10.44;100.00
61318;BME280;47201;40.428;-8.436;2023-05-11T02:44:49;101048.88;;;10.37;100.00
61318;BME280;47201;40.428;-8.436;2023-05-11T02:46:52;101041.00;;;10.34;100.00
61318;BME280;47201;40.428;-8.436;2023-05-11T02:48:55;101038.38;;;10.30;100.00
61318;BME280;47201;40.428;-8.436;2023-05-11T02:50:59;101043.59;;;10.30;100.00
61318;BME280;47201;40.428;-8.436;2023-05-11T02:53:07;101042.72;;;10.30;100.00
61318;BME280;47201;40.428;-8.436;2023-05-11T02:55:09;101041.88;;;10.36;100.00
61318;BME280;47201;40.428;-8.436;2023-05-11T02:57:11;101049.69;;;10.36;100.00
61318;BME280;47201;40.428;-8.436;2023-05-11T02:59:15;101044.56;;;10.42;100.00
61318;BME280;47201;40.428;-8.436;2023-05-11T03:01:16;101052.44;;;10.48;100.00
61318;BME280;47201;40.428;-8.436;2023-05-11T03:03:16;101045.47;;;10.52;100.00
61318;BME280;47201;40.428;-8.436;2023-05-11T03:05:17;101056.78;;;10.49;100.00
61318;BME280;47201;40.428;-8.436;2023-05-11T03:07:19;101052.41;;;10.45;100.00
61318;BME280;47201;40.428;-8.436;2023-05-11T03:09:20;101048.03;;;10.42;100.00
61318;BME280;47201;40.428;-8.436;2023-05-11T03:11:22;101042.81;;;10.41;100.00
61318;BME280;47201;40.428;-8.436;2023-05-11T03:13:23;101037.59;;;10.41;100.00
61318;BME280;47201;40.428;-8.436;2023-05-11T03:15:26;101041.94;;;10.46;100.00
61318;BME280;47201;40.428;-8.436;2023-05-11T03:17:28;101044.56;;;10.43;100.00
61318;BME280;47201;40.428;-8.436;2023-05-11T03:19:29;101043.66;;;10.41;100.00
61318;BME280;47201;40.428;-8.436;2023-05-11T03:21:31;101048.88;;;10.37;100.00
61318;BME280;47201;40.428;-8.436;2023-05-11T03:23:34;101049.69;;;10.26;100.00
61318;BME280;47201;40.428;-8.436;2023-05-11T03:25:35;101047.81;;;10.07;100.00
61318;BME280;47201;40.428;-8.436;2023-05-11T03:27:35;101039.84;;;9.82;100.00
61318;BME280;47201;40.428;-8.436;2023-05-11T03:29:38;101036.22;;;9.66;100.00
61318;BME280;47201;40.428;-8.436;2023-05-11T03:31:45;101036.13;;;9.53;100.00
61318;BME280;47201;40.428;-8.436;2023-05-11T03:33:45;101028.31;;;9.52;100.00
61318;BME280;47201;40.428;-8.436;2023-05-11T03:35:46;101033.53;;;9.55;100.00
61318;BME280;47201;40.428;-8.436;2023-05-11T03:37:51;101036.06;;;9.46;100.00
61318;BME280;47201;40.428;-8.436;2023-05-11T03:39:54;101035.19;;;9.44;100.00
61318;BME280;47201;40.428;-8.436;2023-05-11T03:41:55;101030.84;;;9.43;100.00
61318;BME280;47201;40.428;-8.436;2023-05-11T03:43:57;101036.91;;;9.40;100.00
61318;BME280;47201;40.428;-8.436;2023-05-11T03:45:58;101033.41;;;9.36;100.00
61318;BME280;47201;40.428;-8.436;2023-05-11T03:48:00;101032.66;;;9.55;100.00
61318;BME280;47201;40.428;-8.436;2023-05-11T03:50:01;101042.22;;;9.54;100.00
61318;BME280;47201;40.428;-8.436;2023-05-11T03:52:03;101045.63;;;9.47;100.00
61318;BME280;47201;40.428;-8.436;2023-05-11T03:54:04;101038.63;;;9.40;100.00
61318;BME280;47201;40.428;-8.436;2023-05-11T03:56:06;101047.28;;;9.35;100.00
61318;BME280;47201;40.428;-8.436;2023-05-11T03:58:07;101042.97;;;9.41;100.00
61318;BME280;47201;40.428;-8.436;2023-05-11T04:00:08;101040.31;;;9.33;100.00
61318;BME280;47201;40.428;-8.436;2023-05-11T04:02:15;101042.13;;;9.40;100.00
61318;BME280;47201;40.428;-8.436;2023-05-11T04:04:16;101042.22;;;9.51;100.00
61318;BME280;47201;40.428;-8.436;2023-05-11T04:06:17;101042.25;;;9.57;100.00
61318;BME280;47201;40.428;-8.436;2023-05-11T04:08:19;101042.16;;;9.48;100.00
61318;BME280;47201;40.428;-8.436;2023-05-11T04:10:19;101043.84;;;9.38;100.00
61318;BME280;47201;40.428;-8.436;2023-05-11T04:12:21;101036.84;;;9.34;100.00
61318;BME280;47201;40.428;-8.436;2023-05-11T04:14:22;101037.72;;;9.34;100.00
61318;BME280;47201;40.428;-8.436;2023-05-11T04:16:22;101038.56;;;9.32;100.00
61318;BME280;47201;40.428;-8.436;2023-05-11T04:18:23;101038.53;;;9.29;100.00
61318;BME280;47201;40.428;-8.436;2023-05-11T04:20:23;101036.72;;;9.21;100.00
61318;BME280;47201;40.428;-8.436;2023-05-11T04:22:24;101035.88;;;9.21;100.00
61318;BME280;47201;40.428;-8.436;2023-05-11T04:24:24;101030.59;;;9.18;100.00
61318;BME280;47201;40.428;-8.436;2023-05-11T04:26:25;101032.34;;;9.17;100.00
61318;BME280;47201;40.428;-8.436;2023-05-11T04:28:25;101033.25;;;9.24;100.00
61318;BME280;47201;40.428;-8.436;2023-05-11T04:30:27;101033.34;;;9.30;100.00
61318;BME280;47201;40.428;-8.436;2023-05-11T04:32:27;101037.69;;;9.31;100.00
61318;BME280;47201;40.428;-8.436;2023-05-11T04:34:30;101033.41;;;9.36;100.00
61318;BME280;47201;40.428;-8.436;2023-05-11T04:36:31;101026.47;;;9.40;100.00
61318;BME280;47201;40.428;-8.436;2023-05-11T04:38:32;101031.69;;;9.42;100.00
61318;BME280;47201;40.428;-8.436;2023-05-11T04:40:34;101029.13;;;9.45;100.00
61318;BME280;47201;40.428;-8.436;2023-05-11T04:42:35;101023.88;;;9.43;100.00
61318;BME280;47201;40.428;-8.436;2023-05-11T04:44:38;101028.22;;;9.43;100.00
61318;BME280;47201;40.428;-8.436;2023-05-11T04:46:40;101029.94;;;9.38;100.00
61318;BME280;47201;40.428;-8.436;2023-05-11T04:48:41;101026.44;;;9.35;100.00
61318;BME280;47201;40.428;-8.436;2023-05-11T04:50:41;101030.75;;;9.35;100.00
61318;BME280;47201;40.428;-8.436;2023-05-11T04:52:45;101029.00;;;9.31;100.00
61318;BME280;47201;40.428;-8.436;2023-05-11T04:54:45;101024.66;;;9.33;100.00
61318;BME280;47201;40.428;-8.436;2023-05-11T04:56:46;101029.03;;;9.37;100.00
61318;BME280;47201;40.428;-8.436;2023-05-11T04:58:48;101031.63;;;9.35;100.00
61318;BME280;47201;40.428;-8.436;2023-05-11T05:00:48;101034.25;;;9.34;100.00
61318;BME280;47201;40.428;-8.436;2023-05-11T05:02:49;101033.34;;;9.33;100.00
61318;BME280;47201;40.428;-8.436;2023-05-11T05:04:52;101037.69;;;9.31;100.00
61318;BME280;47201;40.428;-8.436;2023-05-11T05:06:54;101033.34;;;9.30;100.00
61318;BME280;47201;40.428;-8.436;2023-05-11T05:08:54;101024.63;;;9.27;100.00
61318;BME280;47201;40.428;-8.436;2023-05-11T05:10:55;101037.63;;;9.25;100.00
61318;BME280;47201;40.428;-8.436;2023-05-11T05:12:55;101046.34;;;9.27;100.00
61318;BME280;47201;40.428;-8.436;2023-05-11T05:14:56;101049.81;;;9.25;100.00
61318;BME280;47201;40.428;-8.436;2023-05-11T05:16:56;101045.50;;;9.28;100.00
61318;BME280;47201;40.428;-8.436;2023-05-11T05:18:57;101049.81;;;9.28;100.00
61318;BME280;47201;40.428;-8.436;2023-05-11T05:20:58;101049.81;;;9.25;100.00
61318;BME280;47201;40.428;-8.436;2023-05-11T05:22:58;101041.09;;;9.24;100.00
61318;BME280;47201;40.428;-8.436;2023-05-11T05:24:59;101041.97;;;9.23;100.00
61318;BME280;47201;40.428;-8.436;2023-05-11T05:27:00;101046.31;;;9.24;100.00
61318;BME280;47201;40.428;-8.436;2023-05-11T05:29:00;101053.28;;;9.24;100.00
61318;BME280;47201;40.428;-8.436;2023-05-11T05:31:01;101042.88;;;9.27;100.00
61318;BME280;47201;40.428;-8.436;2023-05-11T05:33:02;101047.19;;;9.26;100.00
61318;BME280;47201;40.428;-8.436;2023-05-11T05:35:03;101042.88;;;9.27;100.00
61318;BME280;47201;40.428;-8.436;2023-05-11T05:37:03;101046.34;;;9.29;100.00
61318;BME280;47201;40.428;-8.436;2023-05-11T05:39:04;101042.03;;;9.29;100.00
61318;BME280;47201;40.428;-8.436;2023-05-11T05:41:09;101042.06;;;9.35;100.00
61318;BME280;47201;40.428;-8.436;2023-05-11T05:43:12;101043.88;;;9.43;100.00
61318;BME280;47201;40.428;-8.436;2023-05-11T05:45:13;101040.41;;;9.47;100.00
61318;BME280;47201;40.428;-8.436;2023-05-11T05:47:14;101045.69;;;9.48;100.00
61318;BME280;47201;40.428;-8.436;2023-05-11T05:49:14;101050.94;;;9.55;100.00
61318;BME280;47201;40.428;-8.436;2023-05-11T05:51:16;101050.09;;;9.59;100.00
61318;BME280;47201;40.428;-8.436;2023-05-11T05:53:16;101050.94;;;9.58;100.00
61318;BME280;47201;40.428;-8.436;2023-05-11T05:55:17;101043.16;;;9.62;100.00
61318;BME280;47201;40.428;-8.436;2023-05-11T05:57:20;101051.88;;;9.64;100.00
61318;BME280;47201;40.428;-8.436;2023-05-11T05:59:20;101053.63;;;9.67;100.00
61318;BME280;47201;40.428;-8.436;2023-05-11T06:01:26;101054.56;;;9.74;100.00
61318;BME280;47201;40.428;-8.436;2023-05-11T06:03:26;101061.59;;;9.81;100.00
61318;BME280;47201;40.428;-8.436;2023-05-11T06:05:27;101052.91;;;9.85;100.00
61318;BME280;47201;40.428;-8.436;2023-05-11T06:07:28;101059.03;;;9.93;100.00
61318;BME280;47201;40.428;-8.436;2023-05-11T06:09:28;101059.13;;;10.01;100.00
61318;BME280;47201;40.428;-8.436;2023-05-11T06:11:29;101060.00;;;10.05;100.00
61318;BME280;47201;40.428;-8.436;2023-05-11T06:13:30;101058.25;;;10.07;100.00
61318;BME280;47201;40.428;-8.436;2023-05-11T06:15:32;101065.19;;;10.02;100.00
61318;BME280;47201;40.428;-8.436;2023-05-11T06:17:41;101060.88;;;10.04;100.00
61318;BME280;47201;40.428;-8.436;2023-05-11T06:19:42;101062.66;;;10.14;100.00
61318;BME280;47201;40.428;-8.436;2023-05-11T06:21:43;101061.00;;;10.25;100.00
61318;BME280;47201;40.428;-8.436;2023-05-11T06:23:46;101068.06;;;10.40;100.00
61318;BME280;47201;40.428;-8.436;2023-05-11T06:25:47;101063.75;;;10.50;100.00
61318;BME280;47201;40.428;-8.436;2023-05-11T06:27:48;101069.00;;;10.59;100.00
61318;BME280;47201;40.428;-8.436;2023-05-11T06:29:49;101068.19;;;10.71;100.00
61318;BME280;47201;40.428;-8.436;2023-05-11T06:31:49;101067.38;;;10.88;100.00
61318;BME280;47201;40.428;-8.436;2023-05-11T06:33:52;101076.13;;;11.04;100.00
61318;BME280;47201;40.428;-8.436;2023-05-11T06:36:02;101075.28;;;11.14;100.00
61318;BME280;47201;40.428;-8.436;2023-05-11T06:38:02;101070.09;;;11.28;100.00
61318;BME280;47201;40.428;-8.436;2023-05-11T06:40:03;101080.56;;;11.37;100.00
61318;BME280;47201;40.428;-8.436;2023-05-11T06:42:04;101073.59;;;11.52;100.00
61318;BME280;47201;40.428;-8.436;2023-05-11T06:44:05;101077.09;;;11.69;100.00
61318;BME280;47201;40.428;-8.436;2023-05-11T06:46:10;101077.94;;;11.74;100.00
61318;BME280;47201;40.428;-8.436;2023-05-11T06:48:16;101084.03;;;11.95;100.00
61318;BME280;47201;40.428;-8.436;2023-05-11T06:50:17;101080.59;;;12.04;100.00
61318;BME280;47201;40.428;-8.436;2023-05-11T06:52:18;101068.31;;;12.11;100.00
61318;BME280;47201;40.428;-8.436;2023-05-11T06:54:18;101079.66;;;12.22;100.00
61318;BME280;47201;40.428;-8.436;2023-05-11T06:56:19;101075.28;;;12.26;100.00
61318;BME280;47201;40.428;-8.436;2023-05-11T06:58:21;101079.63;;;12.42;100.00
61318;BME280;47201;40.428;-8.436;2023-05-11T07:00:22;101080.41;;;12.64;100.00
61318;BME280;47201;40.428;-8.436;2023-05-11T07:02:22;101076.69;;;13.07;100.00
61318;BME280;47201;40.428;-8.436;2023-05-11T07:04:23;101081.75;;;13.37;98.16
61318;BME280;47201;40.428;-8.436;2023-05-11T07:06:23;101072.66;;;13.83;94.59
61318;BME280;47201;40.428;-8.436;2023-05-11T07:08:24;101075.63;;;14.36;90.87
61318;BME280;47201;40.428;-8.436;2023-05-11T07:10:24;101078.81;;;15.28;84.96
61318;BME280;47201;40.428;-8.436;2023-05-11T07:12:25;101082.09;;;16.44;76.25
61318;BME280;47201;40.428;-8.436;2023-05-11T07:14:25;101084.16;;;17.52;70.47
61318;BME280;47201;40.428;-8.436;2023-05-11T07:16:26;101081.22;;;18.64;65.72
61318;BME280;47201;40.428;-8.436;2023-05-11T07:18:26;101077.25;;;20.16;59.25
61318;BME280;47201;40.428;-8.436;2023-05-11T07:20:27;101090.22;;;21.43;54.07
61318;BME280;47201;40.428;-8.436;2023-05-11T07:22:27;101085.47;;;22.54;52.31
61318;BME280;47201;40.428;-8.436;2023-05-11T07:24:28;101084.09;;;23.58;49.11
61318;BME280;47201;40.428;-8.436;2023-05-11T07:26:28;101088.09;;;24.87;48.29
61318;BME280;47201;40.428;-8.436;2023-05-11T07:28:29;101096.81;;;25.69;45.56
61318;BME280;47201;40.428;-8.436;2023-05-11T07:30:30;101095.00;;;26.15;45.53
61318;BME280;47201;40.428;-8.436;2023-05-11T07:32:31;101093.75;;;27.34;45.02
61318;BME280;47201;40.428;-8.436;2023-05-11T07:34:31;101103.19;;;27.54;43.74
61318;BME280;47201;40.428;-8.436;2023-05-11T07:36:32;101100.81;;;27.08;45.42
61318;BME280;47201;40.428;-8.436;2023-05-11T07:38:33;101095.69;;;27.32;47.44
61318;BME280;47201;40.428;-8.436;2023-05-11T07:40:34;101098.88;;;27.52;47.45
61318;BME280;47201;40.428;-8.436;2023-05-11T07:42:36;101100.81;;;28.03;48.07
61318;BME280;47201;40.428;-8.436;2023-05-11T07:44:36;101104.44;;;27.89;50.19
61318;BME280;47201;40.428;-8.436;2023-05-11T07:46:37;101103.59;;;28.79;51.44
61318;BME280;47201;40.428;-8.436;2023-05-11T07:48:39;101104.88;;;29.48;51.42
61318;BME280;47201;40.428;-8.436;2023-05-11T07:50:40;101101.22;;;29.11;53.16
61318;BME280;47201;40.428;-8.436;2023-05-11T07:52:41;101102.03;;;29.01;56.68
61318;BME280;47201;40.428;-8.436;2023-05-11T07:54:43;101099.19;;;29.39;56.79
61318;BME280;47201;40.428;-8.436;2023-05-11T07:56:44;101100.59;;;29.56;58.36
61318;BME280;47201;40.428;-8.436;2023-05-11T07:58:44;101102.03;;;30.20;58.31
61318;BME280;47201;40.428;-8.436;2023-05-11T08:03:58;101107.97;;;31.26;60.10
61318;BME280;47201;40.428;-8.436;2023-05-11T08:05:59;101109.25;;;31.97;59.83
61318;BME280;47201;40.428;-8.436;2023-05-11T08:08:00;101110.50;;;32.66;59.67
61318;BME280;47201;40.428;-8.436;2023-05-11T08:10:02;101108.56;;;32.78;60.35
61318;BME280;47201;40.428;-8.436;2023-05-11T08:12:08;101108.22;;;32.71;61.32
61318;BME280;47201;40.428;-8.436;2023-05-11T08:14:11;101110.16;;;33.00;62.58
61318;BME280;47201;40.428;-8.436;2023-05-11T08:16:14;101110.84;;;32.42;63.61
61318;BME280;47201;40.428;-8.436;2023-05-11T08:18:15;101111.69;;;32.42;64.83
61318;BME280;47201;40.428;-8.436;2023-05-11T08:23:31;101107.25;;;32.41;66.15
61318;BME280;47201;40.428;-8.436;2023-05-11T08:25:35;101102.94;;;32.29;67.12
61318;BME280;47201;40.428;-8.436;2023-05-11T08:27:36;101109.38;;;32.38;66.75
61318;BME280;47201;40.428;-8.436;2023-05-11T08:29:36;101109.19;;;33.01;66.55
61318;BME280;47201;40.428;-8.436;2023-05-11T08:31:37;101110.69;;;33.64;66.16
61318;BME280;47201;40.428;-8.436;2023-05-11T08:33:38;101103.97;;;33.88;66.32
61318;BME280;47201;40.428;-8.436;2023-05-11T08:35:42;101108.81;;;33.94;66.34
61318;BME280;47201;40.428;-8.436;2023-05-11T08:37:43;101109.09;;;33.91;66.29
61318;BME280;47201;40.428;-8.436;2023-05-11T08:39:46;101108.22;;;33.71;67.46
61318;BME280;47201;40.428;-8.436;2023-05-11T08:41:48;101111.53;;;33.55;67.84
61318;BME280;47201;40.428;-8.436;2023-05-11T08:43:52;101113.28;;;32.86;68.75
61318;BME280;47201;40.428;-8.436;2023-05-11T08:46:07;101110.78;;;33.14;68.66
61318;BME280;47201;40.428;-8.436;2023-05-11T08:48:10;101108.53;;;33.38;68.52
61318;BME280;47201;40.428;-8.436;2023-05-11T08:50:15;101108.94;;;34.03;68.23
61318;BME280;47201;40.428;-8.436;2023-05-11T08:52:15;101107.91;;;34.79;67.17
61318;BME280;47201;40.428;-8.436;2023-05-11T08:54:17;101110.75;;;34.12;67.43
61318;BME280;47201;40.428;-8.436;2023-05-11T08:56:18;101113.56;;;34.40;67.92
61318;BME280;47201;40.428;-8.436;2023-05-11T08:58:18;101112.72;;;34.95;67.58
61318;BME280;47201;40.428;-8.436;2023-05-11T09:00:40;101112.22;;;35.64;66.91
61318;BME280;47201;40.428;-8.436;2023-05-11T09:02:59;101114.13;;;35.71;66.09
61318;BME280;47201;40.428;-8.436;2023-05-11T09:05:00;101105.19;;;35.79;66.79
61318;BME280;47201;40.428;-8.436;2023-05-11T09:07:03;101112.59;;;35.69;66.56
61318;BME280;47201;40.428;-8.436;2023-05-11T09:09:05;101102.34;;;36.07;66.21
61318;BME280;47201;40.428;-8.436;2023-05-11T09:11:24;101106.63;;;35.47;67.07
61318;BME280;47201;40.428;-8.436;2023-05-11T09:13:25;101100.25;;;33.89;68.96
61318;BME280;47201;40.428;-8.436;2023-05-11T09:15:27;101094.09;;;33.18;69.43
61318;BME280;47201;40.428;-8.436;2023-05-11T09:17:27;101094.41;;;34.31;69.02
61318;BME280;47201;40.428;-8.436;2023-05-11T09:22:03;101100.00;;;34.40;69.16
61318;BME280;47201;40.428;-8.436;2023-05-11T09:24:04;101087.41;;;34.67;68.53
61318;BME280;47201;40.428;-8.436;2023-05-11T09:26:24;101095.97;;;34.72;67.95
61318;BME280;47201;40.428;-8.436;2023-05-11T09:28:47;101097.91;;;34.52;68.65
61318;BME280;47201;40.428;-8.436;2023-05-11T09:30:52;101097.78;;;34.53;68.06
61318;BME280;47201;40.428;-8.436;2023-05-11T09:32:56;101095.19;;;34.14;68.17
61318;BME280;47201;40.428;-8.436;2023-05-11T09:35:08;101084.44;;;32.75;69.13
61318;BME280;47201;40.428;-8.436;2023-05-11T09:37:20;101089.28;;;33.91;68.78
61318;BME280;47201;40.428;-8.436;2023-05-11T09:39:28;101078.31;;;31.15;71.50
61318;BME280;47201;40.428;-8.436;2023-05-11T09:41:30;101076.28;;;30.39;72.73
61318;BME280;47201;40.428;-8.436;2023-05-11T09:43:34;101080.34;;;32.19;70.57
61318;BME280;47201;40.428;-8.436;2023-05-11T09:47:39;101080.31;;;32.09;70.64
61318;BME280;47201;40.428;-8.436;2023-05-11T09:49:42;101080.84;;;33.74;70.12
61318;BME280;47201;40.428;-8.436;2023-05-11T09:51:46;101079.09;;;33.83;69.20
61318;BME280;47201;40.428;-8.436;2023-05-11T09:53:50;101091.06;;;32.20;70.84
61318;BME280;47201;40.428;-8.436;2023-05-11T09:55:57;101085.81;;;31.11;71.42
61318;BME280;47201;40.428;-8.436;2023-05-11T09:58:07;101087.25;;;31.48;71.20
61318;BME280;47201;40.428;-8.436;2023-05-11T10:00:12;101084.38;;;31.61;71.88
61318;BME280;47201;40.428;-8.436;2023-05-11T10:02:17;101081.06;;;32.21;70.15
61318;BME280;47201;40.428;-8.436;2023-05-11T10:04:27;101080.78;;;30.95;71.70
61318;BME280;47201;40.428;-8.436;2023-05-11T10:06:44;101084.06;;;30.55;72.28
61318;BME280;47201;40.428;-8.436;2023-05-11T10:08:48;101081.69;;;31.61;72.38
61318;BME280;47201;40.428;-8.436;2023-05-11T10:10:49;101081.00;;;32.32;70.80
61318;BME280;47201;40.428;-8.436;2023-05-11T10:13:09;101085.75;;;32.19;71.17
61318;BME280;47201;40.428;-8.436;2023-05-11T10:15:09;101080.34;;;32.40;70.97
61318;BME280;47201;40.428;-8.436;2023-05-11T10:17:10;101083.06;;;32.19;71.19
61318;BME280;47201;40.428;-8.436;2023-05-11T10:19:12;101078.53;;;32.19;71.11
61318;BME280;47201;40.428;-8.436;2023-05-11T10:21:13;101068.13;;;31.93;71.64
61318;BME280;47201;40.428;-8.436;2023-05-11T10:23:14;101078.97;;;31.61;72.01
61318;BME280;47201;40.428;-8.436;2023-05-11T10:25:34;101078.56;;;31.44;72.64
61318;BME280;47201;40.428;-8.436;2023-05-11T10:27:35;101072.94;;;31.36;72.64
61318;BME280;47201;40.428;-8.436;2023-05-11T10:29:36;101069.19;;;32.33;71.43
61318;BME280;47201;40.428;-8.436;2023-05-11T10:31:36;101067.94;;;31.85;71.45
61318;BME280;47201;40.428;-8.436;2023-05-11T10:33:37;101073.03;;;31.78;72.01
61318;BME280;47201;40.428;-8.436;2023-05-11T10:35:39;101070.16;;;32.22;71.04
61318;BME280;47201;40.428;-8.436;2023-05-11T10:37:39;101067.47;;;31.80;71.86
61318;BME280;47201;40.428;-8.436;2023-05-11T10:39:41;101064.44;;;32.47;71.39
61318;BME280;47201;40.428;-8.436;2023-05-11T10:41:47;101069.13;;;32.95;71.10
61318;BME280;47201;40.428;-8.436;2023-05-11T10:46:27;101069.44;;;31.99;71.80
61318;BME280;47201;40.428;-8.436;2023-05-11T10:48:42;101071.47;;;32.28;71.87
61318;BME280;47201;40.428;-8.436;2023-05-11T10:50:46;101065.13;;;32.49;71.89
61318;BME280;47201;40.428;-8.436;2023-05-11T10:53:35;101062.88;;;31.92;72.27
61318;BME280;47201;40.428;-8.436;2023-05-11T10:55:40;101056.41;;;30.85;74.75